首页
METAR-TAF:

METAR-TAF

机场 :

明斯特奥斯纳布吕克国际机场

明斯特 / 奥斯纳布吕克, 德国

纬度: 52-08N, 经度: 007-42E, 海拔: 48米

当前天气观测

该预报发布于21分钟前的20:20 UTC
风速7节,风向南转南东
温度 3°C
湿度 87%
气压 1000 hPa
能见度10公里或以上
1500米以下无云,无积雨云

METAR: EDDG 122020Z 15007KT CAVOK 03/01 Q1000 NOSIG

时间: 21:41 (20:41 UTC)

预报

该预报发布于3小时和41分钟前的17:00 UTC
预报有效从12日的 18点(UTC)到 13日的 18点(UTC)
风速4节,风向
能见度10公里或以上
多云层高于3000英尺
成为
从 13日的 00点(UTC)到 13日的 03点(UTC)
风速10节,风向
短暂存在
从 13日的 06点(UTC)到 13日的 10点(UTC)
多云层高于1000英尺

TAF: EDDG 121700Z 1218/1318 17004KT 9999 BKN030 BECMG 1300/1303 19010KT TEMPO 1306/1310 BKN010

超过4000个机场的气象观测和天气预报(METAR&TAF报告)。

可查询的气象台以黄色和红色小点在地图上表示。

将鼠标移到小点上方,可查看气象台名称。

然后点击查看天气观测和预报。

如需切换地图:点击带黑十字的绿色按钮放大地图;点击带横线的绿色按钮缩小地图;或者点击绿色箭头查看邻近地区的地图。


METAR-TAF: